createdAt,value
2022-08-22T00:01:32.648Z,17
2022-08-22T00:02:47.469Z,20.7
2022-08-22T00:02:56.593Z,18
2022-08-22T00:02:57.730Z,17.1
2022-08-22T00:03:06.789Z,17
2022-08-22T00:03:12.379Z,17
2022-08-22T00:03:36.752Z,17
2022-08-22T00:05:40.882Z,17
2022-08-22T00:07:48.055Z,17
2022-08-22T00:09:52.116Z,16.9
2022-08-22T00:11:56.217Z,16.9
2022-08-22T00:12:59.791Z,16.9
2022-08-22T00:17:08.024Z,16.9
2022-08-22T00:19:12.151Z,16.9
2022-08-22T00:21:19.283Z,16.9
2022-08-22T00:23:23.386Z,16.9
2022-08-22T00:25:27.505Z,16.9
2022-08-22T00:27:31.664Z,16.9
2022-08-22T00:29:35.730Z,16.9
2022-08-22T00:31:39.821Z,16.9
2022-08-22T00:33:43.948Z,16.9
2022-08-22T00:35:51.081Z,16.9
2022-08-22T00:37:55.232Z,16.8
2022-08-22T00:39:59.342Z,16.8
2022-08-22T00:44:07.531Z,16.8
2022-08-22T00:46:11.632Z,16.8
2022-08-22T00:48:15.742Z,16.8
2022-08-22T00:50:22.892Z,16.7
2022-08-22T00:52:26.982Z,16.7
2022-08-22T00:54:31.090Z,16.8
2022-08-22T00:56:35.228Z,16.8
2022-08-22T00:58:39.325Z,16.8
2022-08-22T01:00:43.451Z,16.8
2022-08-22T01:02:52.269Z,16.8
2022-08-22T01:06:58.843Z,16.8
2022-08-22T01:09:02.966Z,16.8
2022-08-22T01:10:06.528Z,16.8
2022-08-22T01:12:10.655Z,16.9
2022-08-22T01:14:14.735Z,16.8
2022-08-22T01:16:18.847Z,16.8
2022-08-22T01:18:25.988Z,16.8
2022-08-22T01:20:30.094Z,16.8
2022-08-22T01:22:34.206Z,16.8
2022-08-22T01:24:38.329Z,16.8
2022-08-22T01:26:44.009Z,16.9
2022-08-22T01:28:46.541Z,16.9
2022-08-22T01:30:50.646Z,16.8
2022-08-22T01:32:57.776Z,16.8
2022-08-22T01:35:01.897Z,16.9
2022-08-22T01:37:06.018Z,16.9
2022-08-22T01:39:10.111Z,16.8
2022-08-22T01:41:14.238Z,16.8
2022-08-22T01:43:18.348Z,16.9
2022-08-22T01:47:29.577Z,16.8
2022-08-22T01:49:33.706Z,16.8
2022-08-22T01:51:37.793Z,16.8
2022-08-22T01:53:41.927Z,16.8
2022-08-22T01:55:46.028Z,16.8
2022-08-22T01:57:50.139Z,16.8
2022-08-22T02:02:01.387Z,16.7
2022-08-22T02:04:05.485Z,16.7
2022-08-22T02:06:09.600Z,16.7
2022-08-22T02:08:31.913Z,16.7
2022-08-22T02:10:35.999Z,16.6
2022-08-22T02:12:40.106Z,16.6
2022-08-22T02:14:47.243Z,16.7
2022-08-22T02:16:51.344Z,16.6
2022-08-22T02:18:55.664Z,16.6
2022-08-22T02:20:59.577Z,16.7
2022-08-22T02:23:03.698Z,16.6
2022-08-22T02:25:09.089Z,16.6
2022-08-22T02:27:11.904Z,16.6
2022-08-22T02:29:19.036Z,16.6
2022-08-22T02:31:23.158Z,16.6
2022-08-22T02:33:27.253Z,16.6
2022-08-22T02:35:31.368Z,16.6
2022-08-22T02:48:24.702Z,16.5
2022-08-22T02:52:20.040Z,16.5
2022-08-22T02:54:11.394Z,16.5
2022-08-22T02:56:15.496Z,16.4
2022-08-22T03:00:32.374Z,16.5
2022-08-22T03:02:30.862Z,16.4
2022-08-22T03:03:34.414Z,16.5
2022-08-22T03:05:38.558Z,16.5
2022-08-22T03:07:42.639Z,16.4
2022-08-22T03:09:46.779Z,16.4
2022-08-22T03:11:53.889Z,16.4
2022-08-22T03:13:58.018Z,16.5
2022-08-22T03:16:02.337Z,16.5
2022-08-22T03:18:06.216Z,16.4
2022-08-22T03:20:10.318Z,16.4
2022-08-22T03:22:14.441Z,16.4
2022-08-22T03:24:18.527Z,16.3
2022-08-22T03:26:27.225Z,16.3
2022-08-22T03:28:31.328Z,16.3
2022-08-22T03:30:35.444Z,16.2
2022-08-22T03:32:39.560Z,16.2
2022-08-22T03:34:43.663Z,16.2
2022-08-22T03:36:47.752Z,16.3
2022-08-22T03:38:51.863Z,16.2
2022-08-22T03:40:59.006Z,16.2
2022-08-22T03:43:03.099Z,16.3
2022-08-22T03:45:07.225Z,16.2
2022-08-22T03:47:11.331Z,16.2
2022-08-22T03:49:15.416Z,16.3
2022-08-22T03:51:19.537Z,16.3
2022-08-22T03:53:23.642Z,16.3
2022-08-22T03:55:30.777Z,16.3
2022-08-22T03:57:34.886Z,16.3
2022-08-22T03:59:40.706Z,16.3
2022-08-22T04:09:02.032Z,16.2
2022-08-22T04:11:06.149Z,16.2
2022-08-22T04:13:10.248Z,16.2
2022-08-22T04:15:14.381Z,16.2
2022-08-22T04:17:18.469Z,16.3
2022-08-22T04:21:26.679Z,16.3
2022-08-22T04:23:33.827Z,16.3
2022-08-22T04:25:37.960Z,16.2
2022-08-22T04:27:42.053Z,16.2
2022-08-22T04:29:46.163Z,16.2
2022-08-22T04:31:50.267Z,16.2
2022-08-22T04:33:54.383Z,16.3
2022-08-22T04:35:58.486Z,16.3
2022-08-22T04:38:05.610Z,16.2
2022-08-22T04:40:09.899Z,16.2
2022-08-22T04:42:31.603Z,16.3
2022-08-22T04:44:17.925Z,16.3
2022-08-22T04:46:22.038Z,16.3
2022-08-22T04:48:26.145Z,16.2
2022-08-22T04:50:30.229Z,16.3
2022-08-22T04:52:37.358Z,16.4
2022-08-22T04:54:41.506Z,16.3
2022-08-22T04:57:49.148Z,16.3
2022-08-22T04:59:53.269Z,16.4
2022-08-22T05:01:57.395Z,16.4
2022-08-22T05:04:01.457Z,16.4
2022-08-22T05:06:08.602Z,16.4
2022-08-22T05:08:12.706Z,16.4
2022-08-22T05:10:16.818Z,16.4
2022-08-22T05:12:20.925Z,16.4
2022-08-22T05:14:25.023Z,16.3
2022-08-22T05:16:29.137Z,16.3
2022-08-22T05:18:33.233Z,16.3
2022-08-22T05:20:40.363Z,16.2
2022-08-22T05:22:44.463Z,16.3
2022-08-22T05:24:48.553Z,16.3
2022-08-22T05:26:52.686Z,16.3
2022-08-22T05:28:56.776Z,16.3
2022-08-22T05:31:00.866Z,16.3
2022-08-22T05:33:04.999Z,16.3
2022-08-22T05:35:12.124Z,16.4
2022-08-22T05:37:16.224Z,16.4
2022-08-22T05:47:36.756Z,16.3
2022-08-22T05:56:16.615Z,16.3
2022-08-22T05:58:20.748Z,16.4
2022-08-22T06:00:24.844Z,16.4
2022-08-22T06:02:31.968Z,16.4
2022-08-22T06:04:36.102Z,16.4
2022-08-22T06:06:40.224Z,16.4
2022-08-22T06:08:44.296Z,16.4
2022-08-22T06:10:48.464Z,16.4
2022-08-22T06:12:52.521Z,16.4
2022-08-22T06:14:56.636Z,16.4
2022-08-22T06:17:03.765Z,16.5
2022-08-22T06:19:19.007Z,16.6
2022-08-22T06:21:11.965Z,16.6
2022-08-22T06:23:16.152Z,16.6
2022-08-22T06:25:20.172Z,16.5
2022-08-22T06:29:28.412Z,16.6
2022-08-22T06:31:35.529Z,16.7
2022-08-22T06:33:41.551Z,16.8
2022-08-22T06:35:43.765Z,16.8
2022-08-22T06:37:47.872Z,16.8
2022-08-22T06:39:51.991Z,16.8
2022-08-22T06:41:56.074Z,16.9
2022-08-22T06:44:00.194Z,17
2022-08-22T06:46:07.338Z,17.1
2022-08-22T06:48:11.430Z,17.2
2022-08-22T06:50:15.562Z,17.4
2022-08-22T06:51:19.095Z,17.5
2022-08-22T06:53:23.222Z,17.6
2022-08-22T07:01:42.681Z,18.2
2022-08-22T07:03:46.866Z,18.3
2022-08-22T07:05:50.907Z,18.5
2022-08-22T07:07:55.058Z,19
2022-08-22T07:09:59.118Z,19.3
2022-08-22T07:12:03.256Z,19.1
2022-08-22T07:14:10.378Z,19.9
2022-08-22T07:16:14.492Z,20
2022-08-22T07:18:18.615Z,20.1
2022-08-22T07:20:22.701Z,19.9
2022-08-22T07:22:26.835Z,19.9
2022-08-22T07:24:30.955Z,19.7
2022-08-22T07:26:35.070Z,19.8
2022-08-22T07:28:50.870Z,20.1
2022-08-22T07:30:46.302Z,20
2022-08-22T07:32:50.426Z,20
2022-08-22T07:36:58.689Z,19.7
2022-08-22T07:39:02.803Z,19.7
2022-08-22T07:41:06.900Z,19.9
2022-08-22T07:45:18.151Z,20.2
2022-08-22T07:47:26.150Z,20.3
2022-08-22T07:50:29.961Z,20.5
2022-08-22T07:54:38.187Z,20.4
2022-08-22T08:00:53.582Z,21.3
2022-08-22T08:09:10.073Z,23.2
2022-08-22T08:11:17.193Z,23.5
2022-08-22T08:13:21.298Z,23.6
2022-08-22T08:17:32.217Z,24.3
2022-08-22T08:21:37.763Z,25.9
2022-08-22T08:23:41.946Z,26.7
2022-08-22T08:25:49.028Z,25.9
2022-08-22T08:27:53.216Z,26.2
2022-08-22T08:29:57.231Z,26
2022-08-22T08:32:01.361Z,25.8
2022-08-22T08:34:05.453Z,26.7
2022-08-22T08:36:09.580Z,26
2022-08-22T08:40:20.854Z,27.2
2022-08-22T08:42:24.943Z,26.8
2022-08-22T08:45:32.589Z,25.3
2022-08-22T08:47:36.689Z,25.3
2022-08-22T08:49:42.737Z,25.7
2022-08-22T08:51:44.887Z,26
2022-08-22T08:58:05.105Z,25
2022-08-22T09:00:04.319Z,24.7
2022-08-22T09:02:08.387Z,24.9
2022-08-22T09:04:15.165Z,24.5
2022-08-22T09:06:16.845Z,24.3
2022-08-22T09:08:23.708Z,24.1
2022-08-22T09:10:29.519Z,24.1
2022-08-22T09:12:31.876Z,24
2022-08-22T09:14:35.950Z,24.5
2022-08-22T09:18:44.115Z,23.7
2022-08-22T09:20:48.233Z,24
2022-08-22T09:25:00.903Z,24.2
2022-08-22T09:27:08.744Z,24.4
2022-08-22T09:29:09.087Z,24.7
2022-08-22T09:31:17.014Z,24.7
2022-08-22T09:35:22.518Z,24.9
2022-08-22T09:39:32.497Z,24.9
2022-08-22T09:41:36.579Z,25.1
2022-08-22T09:46:05.264Z,24.7
2022-08-22T09:48:09.357Z,24.7
2022-08-22T09:50:17.106Z,24.8
2022-08-22T09:52:33.909Z,25
2022-08-22T09:58:32.749Z,24.8
2022-08-22T10:00:36.808Z,24.4
2022-08-22T10:02:43.344Z,24.5
2022-08-22T10:04:48.009Z,24.3
2022-08-22T10:06:52.418Z,24.7
2022-08-22T10:08:56.152Z,24.7
2022-08-22T10:11:00.207Z,24.8
2022-08-22T10:13:04.312Z,25.3
2022-08-22T10:15:08.361Z,25.5
2022-08-22T10:17:12.415Z,25.7
2022-08-22T10:19:19.539Z,26.1
2022-08-22T10:21:23.612Z,25.7
2022-08-22T10:23:27.678Z,25.6
2022-08-22T10:25:31.747Z,26
2022-08-22T10:27:35.808Z,26.2
2022-08-22T10:29:39.860Z,25.7
2022-08-22T10:31:58.734Z,26.3
2022-08-22T10:35:55.101Z,26.5
2022-08-22T10:37:59.163Z,25.8
2022-08-22T10:39:11.043Z,25
2022-08-22T10:41:09.425Z,24.5
2022-08-22T10:45:14.905Z,25.1
2022-08-22T10:47:22.018Z,25.9
2022-08-22T10:51:30.151Z,27.1
2022-08-22T10:53:34.965Z,27.2
2022-08-22T10:55:38.257Z,27
2022-08-22T10:57:42.384Z,27.1
2022-08-22T10:59:46.359Z,26.9
2022-08-22T11:01:53.489Z,26.3
2022-08-22T11:03:57.502Z,26.1
2022-08-22T11:06:01.579Z,26.5
2022-08-22T11:08:05.612Z,26.7
2022-08-22T11:10:09.644Z,25.8
2022-08-22T11:12:13.693Z,25.2
2022-08-22T11:14:17.768Z,25.1
2022-08-22T11:16:24.857Z,25.4
2022-08-22T11:18:28.901Z,25.7
2022-08-22T11:20:32.951Z,25.5
2022-08-22T11:22:37.009Z,26
2022-08-22T11:24:53.937Z,26.2
2022-08-22T11:26:47.019Z,26.6
2022-08-22T11:28:49.198Z,27.4
2022-08-22T11:30:56.249Z,28
2022-08-22T11:33:00.789Z,28.1
2022-08-22T11:35:04.361Z,25.9
2022-08-22T11:38:11.957Z,26.9
2022-08-22T11:50:39.285Z,27.8
2022-08-22T11:52:43.326Z,26.9
2022-08-22T11:54:47.373Z,26.2
2022-08-22T11:56:51.444Z,26.6
2022-08-22T11:58:58.520Z,27.5
2022-08-22T12:01:02.578Z,27.8
2022-08-22T12:03:06.609Z,28.1
2022-08-22T12:07:14.692Z,27.6
2022-08-22T12:11:22.762Z,28
2022-08-22T12:13:35.021Z,27.6
2022-08-22T12:15:33.917Z,27.1
2022-08-22T12:17:55.099Z,27.1
2022-08-22T12:19:58.897Z,27.3
2022-08-22T12:25:54.032Z,27
2022-08-22T12:28:01.077Z,27
2022-08-22T12:30:05.299Z,27.2
2022-08-22T12:32:10.151Z,27.1
2022-08-22T12:33:13.236Z,27.3
2022-08-22T12:35:16.686Z,27.7
2022-08-22T12:37:20.682Z,27.1
2022-08-22T12:39:24.695Z,27.1
2022-08-22T12:41:34.960Z,27.3
2022-08-22T12:43:35.812Z,27.5
2022-08-22T12:45:40.588Z,27.2
2022-08-22T12:47:43.871Z,27.6
2022-08-22T12:49:49.956Z,27.3
2022-08-22T12:51:51.884Z,27.4
2022-08-22T12:53:55.932Z,27.7
2022-08-22T12:56:02.985Z,27.6
2022-08-22T12:58:07.022Z,27.4
2022-08-22T13:00:11.705Z,27.3
2022-08-22T13:02:15.067Z,27.4
2022-08-22T13:04:29.725Z,26.8
2022-08-22T13:06:23.086Z,26.7
2022-08-22T13:08:27.149Z,26.5
2022-08-22T13:10:34.213Z,26.7
2022-08-22T13:12:38.224Z,26.8
2022-08-22T13:14:42.244Z,26.9
2022-08-22T13:16:49.046Z,27
2022-08-22T13:22:58.338Z,27.6
2022-08-22T13:27:09.451Z,27.6
2022-08-22T13:29:25.564Z,27.5
2022-08-22T13:31:31.587Z,26.6
2022-08-22T13:33:35.619Z,26.5
2022-08-22T13:35:43.346Z,26.9
2022-08-22T13:37:46.700Z,27.4
2022-08-22T13:39:50.790Z,27.6
2022-08-22T13:41:54.754Z,27.5
2022-08-22T13:43:58.796Z,27.6
2022-08-22T13:46:02.810Z,27.9
2022-08-22T13:48:08.801Z,28
2022-08-22T13:50:10.840Z,27.8
2022-08-22T13:54:21.926Z,27.4
2022-08-22T13:56:25.966Z,27.4
2022-08-22T13:58:30.009Z,27.4
2022-08-22T14:02:38.026Z,27.3
2022-08-22T14:04:42.060Z,27.5
2022-08-22T14:06:49.133Z,27.7
2022-08-22T14:08:53.138Z,27.8
2022-08-22T14:10:57.363Z,27.4
2022-08-22T14:13:01.192Z,27
2022-08-22T14:15:05.222Z,27
2022-08-22T14:21:20.344Z,27.4
2022-08-22T14:23:27.079Z,27.2
2022-08-22T14:25:28.403Z,27.1
2022-08-22T14:26:33.229Z,27.6
2022-08-22T14:28:35.951Z,27.5
2022-08-22T14:30:40.017Z,27.6
2022-08-22T14:32:44.054Z,27.7
2022-08-22T14:34:51.138Z,27.7
2022-08-22T14:38:59.181Z,27.7
2022-08-22T14:41:03.485Z,27.7
2022-08-22T14:43:07.232Z,27.4
2022-08-22T14:45:11.257Z,27.1
2022-08-22T14:47:32.450Z,27.4
2022-08-22T14:49:24.768Z,26.9
2022-08-22T14:51:26.406Z,26.6
2022-08-22T14:55:34.456Z,27.3
2022-08-22T14:57:38.503Z,27.4
2022-08-22T14:59:42.527Z,26.9
2022-08-22T15:01:46.592Z,26.9
2022-08-22T15:03:53.627Z,26.7
2022-08-22T15:05:57.702Z,26.6
2022-08-22T15:08:01.848Z,26.7
2022-08-22T15:10:06.194Z,26.8
2022-08-22T15:12:10.526Z,26.7
2022-08-22T15:14:13.780Z,26.8
2022-08-22T15:16:17.801Z,26.9
2022-08-22T15:18:24.905Z,27
2022-08-22T15:20:34.054Z,26.9
2022-08-22T15:22:34.467Z,26.7
2022-08-22T15:23:45.194Z,26.5
2022-08-22T15:25:42.054Z,26.5
2022-08-22T15:27:46.088Z,26
2022-08-22T15:29:50.157Z,26.2
2022-08-22T15:34:01.265Z,26.7
2022-08-22T15:36:05.296Z,26.8
2022-08-22T15:38:11.337Z,27.1
2022-08-22T15:44:32.267Z,29.7
2022-08-22T15:46:28.543Z,31.1
2022-08-22T15:48:32.577Z,30.7
2022-08-22T15:52:42.081Z,30
2022-08-22T15:54:46.912Z,29.9
2022-08-22T15:56:48.796Z,31.1
2022-08-22T15:58:52.600Z,30.7
2022-08-22T16:00:59.638Z,30.3
2022-08-22T16:07:11.602Z,28.9
2022-08-22T16:09:15.537Z,28.8
2022-08-22T16:11:19.481Z,28.9
2022-08-22T16:13:23.457Z,30
2022-08-22T16:19:38.417Z,28.7
2022-08-22T16:20:41.935Z,28.9
2022-08-22T16:24:49.926Z,28.6
2022-08-22T16:26:53.864Z,28.5
2022-08-22T16:29:00.911Z,29.2
2022-08-22T16:31:04.883Z,29.6
2022-08-22T16:33:18.146Z,29.9
2022-08-22T16:35:12.874Z,29
2022-08-22T16:37:16.864Z,27.9
2022-08-22T16:39:21.370Z,27.6
2022-08-22T16:41:25.401Z,28
2022-08-22T16:43:32.415Z,28.1
2022-08-22T16:45:36.416Z,28
2022-08-22T16:47:40.410Z,29.3
2022-08-22T16:49:44.417Z,30.8
2022-08-22T16:51:48.439Z,30
2022-08-22T16:53:52.422Z,29.1
2022-08-22T16:55:56.616Z,28.1
2022-08-22T16:58:06.634Z,28.1
2022-08-22T17:00:07.532Z,27.5
2022-08-22T17:04:15.532Z,30.3
2022-08-22T17:06:19.516Z,31
2022-08-22T17:08:23.518Z,31.5
2022-08-22T17:10:27.591Z,31.9
2022-08-22T17:12:34.525Z,32.2
2022-08-22T17:14:38.532Z,31.5
2022-08-22T17:16:42.493Z,31.3
2022-08-22T17:19:00.518Z,31.2
2022-08-22T17:21:04.474Z,30.8
2022-08-22T17:23:08.446Z,29.8
2022-08-22T17:25:15.462Z,30.2
2022-08-22T17:27:19.405Z,30.6
2022-08-22T17:29:23.384Z,31.1
2022-08-22T17:31:27.314Z,30.6
2022-08-22T17:33:31.286Z,29.9
2022-08-22T17:37:39.208Z,29.7
2022-08-22T17:39:46.258Z,30.9
2022-08-22T17:41:50.169Z,30.4
2022-08-22T17:43:54.122Z,29.9
2022-08-22T17:45:58.264Z,29.8
2022-08-22T17:48:02.077Z,28
2022-08-22T17:50:06.033Z,26.9
2022-08-22T17:52:10.007Z,26.4
2022-08-22T17:54:17.044Z,25.9
2022-08-22T17:56:21.048Z,25.8
2022-08-22T17:58:33.591Z,25.7
2022-08-22T18:00:29.098Z,25.6
2022-08-22T18:02:33.098Z,25.5
2022-08-22T18:04:37.121Z,25.4
2022-08-22T18:06:41.163Z,25.3
2022-08-22T18:09:14.185Z,25.2
2022-08-22T18:10:52.295Z,25.2
2022-08-22T18:12:56.416Z,25.1
2022-08-22T18:13:59.889Z,25
2022-08-22T18:16:03.974Z,25
2022-08-22T18:18:08.059Z,24.9
2022-08-22T18:20:12.118Z,24.8
2022-08-22T18:22:20.722Z,24.6
2022-08-22T18:28:31.458Z,24.4
2022-08-22T18:30:36.864Z,24.2
2022-08-22T18:32:39.626Z,24.2
2022-08-22T18:34:43.700Z,24.2
2022-08-22T18:36:50.829Z,24
2022-08-22T18:38:54.920Z,24
2022-08-22T18:40:59.010Z,23.9
2022-08-22T18:47:11.343Z,23.8
2022-08-22T18:49:16.087Z,23.7
2022-08-22T18:51:24.599Z,23.6
2022-08-22T18:53:26.688Z,23.5
2022-08-22T18:55:30.747Z,23.5
2022-08-22T18:57:42.602Z,23.4
2022-08-22T18:59:38.966Z,23.2
2022-08-22T19:01:44.420Z,23.2
2022-08-22T19:03:47.195Z,23.1
2022-08-22T19:05:54.340Z,23.1
2022-08-22T19:07:58.453Z,23
2022-08-22T19:13:10.267Z,22.8
2022-08-22T19:17:18.494Z,22.6
2022-08-22T19:19:25.625Z,22.4
2022-08-22T19:21:29.747Z,22.5
2022-08-22T19:23:33.847Z,22.4
2022-08-22T19:25:38.020Z,22.3
2022-08-22T19:27:42.119Z,22.2
2022-08-22T19:29:48.739Z,22.1
2022-08-22T19:31:50.532Z,22
2022-08-22T19:36:01.590Z,21.9
2022-08-22T19:38:05.720Z,21.8
2022-08-22T19:40:09.949Z,21.8
2022-08-22T19:42:14.267Z,21.7
2022-08-22T19:44:18.077Z,21.6
2022-08-22T19:46:22.194Z,21.6
2022-08-22T19:48:29.370Z,21.5
2022-08-22T19:50:33.519Z,21.5
2022-08-22T19:54:41.606Z,21.4
2022-08-22T19:56:45.746Z,21.4
2022-08-22T19:58:49.876Z,21.3
2022-08-22T20:00:54.034Z,21.2
2022-08-22T20:03:01.341Z,21
2022-08-22T20:05:05.256Z,21
2022-08-22T20:07:14.736Z,21
2022-08-22T20:08:12.945Z,20.9
2022-08-22T20:10:17.076Z,20.9
2022-08-22T20:12:21.206Z,20.9
2022-08-22T20:14:30.729Z,20.8
2022-08-22T20:16:32.507Z,20.8
2022-08-22T20:18:51.988Z,20.8
2022-08-22T20:20:40.751Z,20.8
2022-08-22T20:22:44.900Z,20.7
2022-08-22T20:24:48.995Z,20.8
2022-08-22T20:27:12.833Z,20.8
2022-08-22T20:28:57.269Z,20.7
2022-08-22T20:31:04.439Z,20.6
2022-08-22T20:33:08.529Z,20.6
2022-08-22T20:35:12.676Z,20.5
2022-08-22T20:37:32.373Z,20.5
2022-08-22T20:39:20.938Z,20.5
2022-08-22T20:41:25.147Z,20.4
2022-08-22T20:43:29.210Z,20.3
2022-08-22T20:47:41.787Z,20.2
2022-08-22T20:51:48.744Z,20.2
2022-08-22T20:53:52.904Z,20.1
2022-08-22T20:55:59.872Z,20
2022-08-22T20:58:01.451Z,20
2022-08-22T21:00:08.309Z,19.9
2022-08-22T21:04:16.601Z,19.8
2022-08-22T21:06:35.161Z,19.8
2022-08-22T21:08:39.280Z,19.7
2022-08-22T21:10:43.421Z,19.7
2022-08-22T21:12:50.646Z,19.6
2022-08-22T21:14:54.686Z,19.6
2022-08-22T21:17:00.402Z,19.6
2022-08-22T21:19:04.472Z,19.6
2022-08-22T21:21:17.804Z,19.6
2022-08-22T21:23:12.725Z,19.6
2022-08-22T21:25:16.872Z,19.5
2022-08-22T21:29:29.943Z,19.4
2022-08-22T21:31:32.296Z,19.4
2022-08-22T21:35:40.536Z,19.3
2022-08-22T21:44:00.079Z,19.2
2022-08-22T21:46:04.188Z,19.1
2022-08-22T21:48:08.308Z,19.1
2022-08-22T21:50:12.454Z,19
2022-08-22T21:54:20.705Z,19
2022-08-22T21:56:27.834Z,19
2022-08-22T21:58:36.464Z,18.9
2022-08-22T22:00:36.278Z,19
2022-08-22T22:05:47.926Z,18.7
2022-08-22T22:09:59.194Z,18.7
2022-08-22T22:16:11.575Z,18.6
2022-08-22T22:18:15.734Z,18.6
2022-08-22T22:20:19.841Z,18.6
2022-08-22T22:22:23.969Z,18.5
2022-08-22T22:26:35.248Z,18.5
2022-08-22T22:28:39.373Z,18.4
2022-08-22T22:30:43.510Z,18.4
2022-08-22T22:34:51.736Z,18.3
2022-08-22T22:41:07.149Z,18.3
2022-08-22T22:43:11.261Z,18.2
2022-08-22T22:45:15.399Z,18.2
2022-08-22T22:47:19.513Z,18.2
2022-08-22T22:51:27.787Z,18.1
2022-08-22T22:53:40.438Z,18.1
2022-08-22T22:55:41.475Z,18.1
2022-08-22T22:57:43.187Z,18
2022-08-22T23:00:50.951Z,18
2022-08-22T23:02:54.996Z,18
2022-08-22T23:04:59.138Z,18
2022-08-22T23:07:06.286Z,17.9
2022-08-22T23:09:10.439Z,17.9
2022-08-22T23:11:14.532Z,17.9
2022-08-22T23:13:18.689Z,17.8
2022-08-22T23:15:22.798Z,17.8
2022-08-22T23:19:31.041Z,17.8
2022-08-22T23:21:38.198Z,17.7
2022-08-22T23:23:42.329Z,17.7
2022-08-22T23:25:46.447Z,17.7
2022-08-22T23:27:58.750Z,17.7
2022-08-22T23:29:54.711Z,17.7
2022-08-22T23:31:58.838Z,17.6
2022-08-22T23:34:02.955Z,17.6
2022-08-22T23:36:10.094Z,17.6
2022-08-22T23:40:18.402Z,17.5
2022-08-22T23:46:31.326Z,17.4
2022-08-22T23:48:34.841Z,17.4
2022-08-22T23:50:41.980Z,17.4
2022-08-22T23:54:54.627Z,17.3
2022-08-22T23:55:53.794Z,17.3
2022-08-22T23:57:58.061Z,17.3
